sensor_id;sensor_type;location;lat;lon;timestamp;P1;durP1;ratioP1;P2;durP2;ratioP2
68072;SDS011;54862;51.502;7.446;2023-04-24T00:00:44;1.65;;;1.27;;
68072;SDS011;54862;51.502;7.446;2023-04-24T00:03:11;1.95;;;1.45;;
68072;SDS011;54862;51.502;7.446;2023-04-24T00:05:38;1.35;;;1.30;;
68072;SDS011;54862;51.502;7.446;2023-04-24T00:08:05;4.32;;;1.30;;
68072;SDS011;54862;51.502;7.446;2023-04-24T00:10:31;2.83;;;1.40;;
68072;SDS011;54862;51.502;7.446;2023-04-24T00:12:57;1.40;;;1.30;;
68072;SDS011;54862;51.502;7.446;2023-04-24T00:15:23;2.00;;;1.40;;
68072;SDS011;54862;51.502;7.446;2023-04-24T00:17:49;2.70;;;1.35;;
68072;SDS011;54862;51.502;7.446;2023-04-24T00:20:18;2.05;;;1.58;;
68072;SDS011;54862;51.502;7.446;2023-04-24T00:22:44;3.25;;;1.30;;
68072;SDS011;54862;51.502;7.446;2023-04-24T00:25:10;2.00;;;1.30;;
68072;SDS011;54862;51.502;7.446;2023-04-24T00:27:36;5.20;;;1.40;;
68072;SDS011;54862;51.502;7.446;2023-04-24T00:30:03;2.80;;;1.33;;
68072;SDS011;54862;51.502;7.446;2023-04-24T00:32:30;1.50;;;1.40;;
68072;SDS011;54862;51.502;7.446;2023-04-24T00:34:56;3.20;;;1.55;;
68072;SDS011;54862;51.502;7.446;2023-04-24T00:37:22;2.55;;;1.63;;
68072;SDS011;54862;51.502;7.446;2023-04-24T00:39:48;2.38;;;1.45;;
68072;SDS011;54862;51.502;7.446;2023-04-24T00:42:13;2.00;;;1.52;;
68072;SDS011;54862;51.502;7.446;2023-04-24T00:44:40;2.20;;;1.52;;
68072;SDS011;54862;51.502;7.446;2023-04-24T00:47:06;2.75;;;1.50;;
68072;SDS011;54862;51.502;7.446;2023-04-24T00:49:32;3.40;;;1.77;;
68072;SDS011;54862;51.502;7.446;2023-04-24T00:51:58;2.15;;;1.50;;
68072;SDS011;54862;51.502;7.446;2023-04-24T00:54:24;3.05;;;1.75;;
68072;SDS011;54862;51.502;7.446;2023-04-24T00:56:50;3.42;;;1.75;;
68072;SDS011;54862;51.502;7.446;2023-04-24T00:59:17;1.80;;;1.60;;
68072;SDS011;54862;51.502;7.446;2023-04-24T01:01:43;5.43;;;2.10;;
68072;SDS011;54862;51.502;7.446;2023-04-24T01:04:11;2.17;;;1.65;;
68072;SDS011;54862;51.502;7.446;2023-04-24T01:06:40;3.75;;;1.80;;
68072;SDS011;54862;51.502;7.446;2023-04-24T01:09:07;3.00;;;1.83;;
68072;SDS011;54862;51.502;7.446;2023-04-24T01:11:33;2.33;;;1.70;;
68072;SDS011;54862;51.502;7.446;2023-04-24T01:13:59;2.63;;;1.75;;
68072;SDS011;54862;51.502;7.446;2023-04-24T01:16:28;3.75;;;1.70;;
68072;SDS011;54862;51.502;7.446;2023-04-24T01:18:54;3.30;;;1.75;;
68072;SDS011;54862;51.502;7.446;2023-04-24T01:21:20;3.67;;;2.08;;
68072;SDS011;54862;51.502;7.446;2023-04-24T01:23:47;3.75;;;1.80;;
68072;SDS011;54862;51.502;7.446;2023-04-24T01:26:14;3.42;;;2.00;;
68072;SDS011;54862;51.502;7.446;2023-04-24T01:28:40;5.32;;;1.88;;
68072;SDS011;54862;51.502;7.446;2023-04-24T01:31:08;3.05;;;1.70;;
68072;SDS011;54862;51.502;7.446;2023-04-24T01:33:34;2.90;;;1.65;;
68072;SDS011;54862;51.502;7.446;2023-04-24T01:36:00;4.03;;;2.08;;
68072;SDS011;54862;51.502;7.446;2023-04-24T01:38:26;3.50;;;1.95;;
68072;SDS011;54862;51.502;7.446;2023-04-24T01:40:52;4.03;;;1.90;;
68072;SDS011;54862;51.502;7.446;2023-04-24T01:43:18;3.60;;;1.90;;
68072;SDS011;54862;51.502;7.446;2023-04-24T01:45:47;1.95;;;1.70;;
68072;SDS011;54862;51.502;7.446;2023-04-24T01:48:13;4.57;;;2.00;;
68072;SDS011;54862;51.502;7.446;2023-04-24T01:50:39;3.83;;;2.00;;
68072;SDS011;54862;51.502;7.446;2023-04-24T01:53:05;2.92;;;1.85;;
68072;SDS011;54862;51.502;7.446;2023-04-24T01:55:31;3.90;;;2.00;;
68072;SDS011;54862;51.502;7.446;2023-04-24T01:58:02;5.10;;;2.40;;
68072;SDS011;54862;51.502;7.446;2023-04-24T02:00:28;3.22;;;1.90;;
68072;SDS011;54862;51.502;7.446;2023-04-24T02:02:54;4.80;;;2.10;;
68072;SDS011;54862;51.502;7.446;2023-04-24T02:05:22;3.30;;;1.90;;
68072;SDS011;54862;51.502;7.446;2023-04-24T02:07:51;4.50;;;2.10;;
68072;SDS011;54862;51.502;7.446;2023-04-24T02:10:17;4.47;;;2.20;;
68072;SDS011;54862;51.502;7.446;2023-04-24T02:12:43;5.63;;;2.47;;
68072;SDS011;54862;51.502;7.446;2023-04-24T02:15:09;5.68;;;2.17;;
68072;SDS011;54862;51.502;7.446;2023-04-24T02:17:37;5.95;;;2.20;;
68072;SDS011;54862;51.502;7.446;2023-04-24T02:20:04;7.03;;;2.22;;
68072;SDS011;54862;51.502;7.446;2023-04-24T02:22:31;6.13;;;2.58;;
68072;SDS011;54862;51.502;7.446;2023-04-24T02:24:57;3.75;;;1.92;;
68072;SDS011;54862;51.502;7.446;2023-04-24T02:27:23;3.72;;;2.20;;
68072;SDS011;54862;51.502;7.446;2023-04-24T02:29:51;6.30;;;2.80;;
68072;SDS011;54862;51.502;7.446;2023-04-24T02:32:17;6.47;;;2.72;;
68072;SDS011;54862;51.502;7.446;2023-04-24T02:34:43;7.28;;;3.08;;
68072;SDS011;54862;51.502;7.446;2023-04-24T02:37:14;6.10;;;3.15;;
68072;SDS011;54862;51.502;7.446;2023-04-24T02:39:41;7.45;;;3.22;;
68072;SDS011;54862;51.502;7.446;2023-04-24T02:42:09;8.05;;;2.95;;
68072;SDS011;54862;51.502;7.446;2023-04-24T02:44:35;7.50;;;3.13;;
68072;SDS011;54862;51.502;7.446;2023-04-24T02:47:01;7.15;;;3.15;;
68072;SDS011;54862;51.502;7.446;2023-04-24T02:49:27;7.88;;;3.10;;
68072;SDS011;54862;51.502;7.446;2023-04-24T02:51:55;7.22;;;3.10;;
68072;SDS011;54862;51.502;7.446;2023-04-24T02:54:21;8.35;;;3.45;;
68072;SDS011;54862;51.502;7.446;2023-04-24T02:56:47;6.97;;;3.20;;
68072;SDS011;54862;51.502;7.446;2023-04-24T02:59:13;7.75;;;3.30;;
68072;SDS011;54862;51.502;7.446;2023-04-24T03:01:39;8.88;;;4.15;;
68072;SDS011;54862;51.502;7.446;2023-04-24T03:04:05;10.10;;;4.28;;
68072;SDS011;54862;51.502;7.446;2023-04-24T03:06:31;9.57;;;4.72;;
68072;SDS011;54862;51.502;7.446;2023-04-24T03:08:57;9.23;;;4.97;;
68072;SDS011;54862;51.502;7.446;2023-04-24T03:11:23;11.75;;;4.80;;
68072;SDS011;54862;51.502;7.446;2023-04-24T03:13:50;9.35;;;4.65;;
68072;SDS011;54862;51.502;7.446;2023-04-24T03:16:16;11.15;;;5.10;;
68072;SDS011;54862;51.502;7.446;2023-04-24T03:18:42;9.98;;;4.85;;
68072;SDS011;54862;51.502;7.446;2023-04-24T03:21:13;10.63;;;5.05;;
68072;SDS011;54862;51.502;7.446;2023-04-24T03:23:41;10.52;;;5.20;;
68072;SDS011;54862;51.502;7.446;2023-04-24T03:26:07;10.98;;;5.43;;
68072;SDS011;54862;51.502;7.446;2023-04-24T03:28:33;12.73;;;5.68;;
68072;SDS011;54862;51.502;7.446;2023-04-24T03:30:59;12.25;;;5.68;;
68072;SDS011;54862;51.502;7.446;2023-04-24T03:33:25;14.20;;;6.10;;
68072;SDS011;54862;51.502;7.446;2023-04-24T03:35:51;11.82;;;5.95;;
68072;SDS011;54862;51.502;7.446;2023-04-24T03:38:19;11.45;;;6.18;;
68072;SDS011;54862;51.502;7.446;2023-04-24T03:40:45;11.35;;;6.20;;
68072;SDS011;54862;51.502;7.446;2023-04-24T03:43:11;12.25;;;6.18;;
68072;SDS011;54862;51.502;7.446;2023-04-24T03:45:37;12.73;;;6.45;;
68072;SDS011;54862;51.502;7.446;2023-04-24T03:48:03;13.68;;;6.78;;
68072;SDS011;54862;51.502;7.446;2023-04-24T03:50:29;13.27;;;6.65;;
68072;SDS011;54862;51.502;7.446;2023-04-24T03:52:55;12.75;;;6.25;;
68072;SDS011;54862;51.502;7.446;2023-04-24T03:55:23;13.00;;;7.35;;
68072;SDS011;54862;51.502;7.446;2023-04-24T03:57:49;12.73;;;6.40;;
68072;SDS011;54862;51.502;7.446;2023-04-24T04:00:17;11.40;;;6.45;;
68072;SDS011;54862;51.502;7.446;2023-04-24T04:02:44;13.13;;;6.82;;
68072;SDS011;54862;51.502;7.446;2023-04-24T04:05:10;16.20;;;7.45;;
68072;SDS011;54862;51.502;7.446;2023-04-24T04:07:36;13.48;;;7.45;;
68072;SDS011;54862;51.502;7.446;2023-04-24T04:10:02;12.70;;;7.38;;
68072;SDS011;54862;51.502;7.446;2023-04-24T04:12:28;15.95;;;7.15;;
68072;SDS011;54862;51.502;7.446;2023-04-24T04:14:55;16.50;;;7.22;;
68072;SDS011;54862;51.502;7.446;2023-04-24T04:17:21;13.23;;;7.05;;
68072;SDS011;54862;51.502;7.446;2023-04-24T04:19:49;15.25;;;6.97;;
68072;SDS011;54862;51.502;7.446;2023-04-24T04:22:15;12.82;;;6.68;;
68072;SDS011;54862;51.502;7.446;2023-04-24T04:24:41;13.35;;;7.07;;
68072;SDS011;54862;51.502;7.446;2023-04-24T04:27:08;13.90;;;7.60;;
68072;SDS011;54862;51.502;7.446;2023-04-24T04:29:34;13.98;;;7.03;;
68072;SDS011;54862;51.502;7.446;2023-04-24T04:32:00;17.90;;;7.97;;
68072;SDS011;54862;51.502;7.446;2023-04-24T04:34:27;15.77;;;7.50;;
68072;SDS011;54862;51.502;7.446;2023-04-24T04:36:54;14.68;;;8.35;;
68072;SDS011;54862;51.502;7.446;2023-04-24T04:39:20;20.38;;;7.82;;
68072;SDS011;54862;51.502;7.446;2023-04-24T04:41:46;14.98;;;7.88;;
68072;SDS011;54862;51.502;7.446;2023-04-24T04:44:13;12.65;;;7.50;;
68072;SDS011;54862;51.502;7.446;2023-04-24T04:46:40;14.95;;;8.40;;
68072;SDS011;54862;51.502;7.446;2023-04-24T04:49:06;14.32;;;8.07;;
68072;SDS011;54862;51.502;7.446;2023-04-24T04:51:34;14.23;;;8.00;;
68072;SDS011;54862;51.502;7.446;2023-04-24T04:54:00;13.88;;;7.32;;
68072;SDS011;54862;51.502;7.446;2023-04-24T04:56:26;14.07;;;7.65;;
68072;SDS011;54862;51.502;7.446;2023-04-24T04:58:52;14.27;;;7.63;;
68072;SDS011;54862;51.502;7.446;2023-04-24T05:01:20;13.00;;;7.50;;
68072;SDS011;54862;51.502;7.446;2023-04-24T05:03:48;15.60;;;8.85;;
68072;SDS011;54862;51.502;7.446;2023-04-24T05:06:16;20.05;;;8.23;;
68072;SDS011;54862;51.502;7.446;2023-04-24T05:08:42;18.10;;;8.30;;
68072;SDS011;54862;51.502;7.446;2023-04-24T05:11:10;14.57;;;8.07;;
68072;SDS011;54862;51.502;7.446;2023-04-24T05:13:36;15.82;;;8.15;;
68072;SDS011;54862;51.502;7.446;2023-04-24T05:16:02;17.35;;;9.05;;
68072;SDS011;54862;51.502;7.446;2023-04-24T05:18:28;17.65;;;8.90;;
68072;SDS011;54862;51.502;7.446;2023-04-24T05:20:59;14.40;;;8.60;;
68072;SDS011;54862;51.502;7.446;2023-04-24T05:23:25;15.85;;;8.57;;
68072;SDS011;54862;51.502;7.446;2023-04-24T05:25:50;14.57;;;8.07;;
68072;SDS011;54862;51.502;7.446;2023-04-24T05:28:16;14.43;;;8.18;;
68072;SDS011;54862;51.502;7.446;2023-04-24T05:30:43;14.95;;;7.78;;
68072;SDS011;54862;51.502;7.446;2023-04-24T05:33:11;15.18;;;7.45;;
68072;SDS011;54862;51.502;7.446;2023-04-24T05:35:39;14.10;;;8.27;;
68072;SDS011;54862;51.502;7.446;2023-04-24T05:38:10;14.93;;;7.13;;
68072;SDS011;54862;51.502;7.446;2023-04-24T05:40:36;13.00;;;6.88;;
68072;SDS011;54862;51.502;7.446;2023-04-24T05:43:02;11.48;;;6.55;;
68072;SDS011;54862;51.502;7.446;2023-04-24T05:45:28;14.15;;;7.35;;
68072;SDS011;54862;51.502;7.446;2023-04-24T05:47:56;11.45;;;6.50;;
68072;SDS011;54862;51.502;7.446;2023-04-24T05:50:22;12.05;;;6.78;;
68072;SDS011;54862;51.502;7.446;2023-04-24T05:52:48;13.95;;;7.15;;
68072;SDS011;54862;51.502;7.446;2023-04-24T05:55:17;11.98;;;6.53;;
68072;SDS011;54862;51.502;7.446;2023-04-24T05:57:43;13.35;;;6.55;;
68072;SDS011;54862;51.502;7.446;2023-04-24T06:00:09;17.25;;;7.60;;
68072;SDS011;54862;51.502;7.446;2023-04-24T06:02:37;15.30;;;7.07;;
68072;SDS011;54862;51.502;7.446;2023-04-24T06:05:05;12.57;;;6.60;;
68072;SDS011;54862;51.502;7.446;2023-04-24T06:07:35;12.13;;;6.72;;
68072;SDS011;54862;51.502;7.446;2023-04-24T06:10:01;13.02;;;6.75;;
68072;SDS011;54862;51.502;7.446;2023-04-24T06:12:27;12.27;;;6.95;;
68072;SDS011;54862;51.502;7.446;2023-04-24T06:14:53;14.50;;;6.75;;
68072;SDS011;54862;51.502;7.446;2023-04-24T06:17:20;11.90;;;6.93;;
68072;SDS011;54862;51.502;7.446;2023-04-24T06:19:46;13.23;;;6.85;;
68072;SDS011;54862;51.502;7.446;2023-04-24T06:22:14;16.13;;;7.32;;
68072;SDS011;54862;51.502;7.446;2023-04-24T06:24:42;12.60;;;6.78;;
68072;SDS011;54862;51.502;7.446;2023-04-24T06:27:11;18.25;;;6.93;;
68072;SDS011;54862;51.502;7.446;2023-04-24T06:29:37;12.02;;;6.07;;
68072;SDS011;54862;51.502;7.446;2023-04-24T06:32:03;13.07;;;6.18;;
68072;SDS011;54862;51.502;7.446;2023-04-24T06:34:28;12.93;;;5.70;;
68072;SDS011;54862;51.502;7.446;2023-04-24T06:36:55;9.60;;;5.38;;
68072;SDS011;54862;51.502;7.446;2023-04-24T06:39:21;11.00;;;5.80;;
68072;SDS011;54862;51.502;7.446;2023-04-24T06:41:50;15.07;;;6.70;;
68072;SDS011;54862;51.502;7.446;2023-04-24T06:44:16;10.82;;;5.22;;
68072;SDS011;54862;51.502;7.446;2023-04-24T06:46:42;12.13;;;5.47;;
68072;SDS011;54862;51.502;7.446;2023-04-24T06:49:09;11.77;;;4.97;;
68072;SDS011;54862;51.502;7.446;2023-04-24T06:51:35;9.90;;;4.80;;
68072;SDS011;54862;51.502;7.446;2023-04-24T06:54:01;10.60;;;5.15;;
68072;SDS011;54862;51.502;7.446;2023-04-24T06:56:29;9.32;;;4.68;;
68072;SDS011;54862;51.502;7.446;2023-04-24T06:58:56;9.63;;;5.00;;
68072;SDS011;54862;51.502;7.446;2023-04-24T07:01:22;10.38;;;5.20;;
68072;SDS011;54862;51.502;7.446;2023-04-24T07:03:48;10.32;;;5.38;;
68072;SDS011;54862;51.502;7.446;2023-04-24T07:06:14;10.55;;;4.40;;
68072;SDS011;54862;51.502;7.446;2023-04-24T07:08:44;8.23;;;4.40;;
68072;SDS011;54862;51.502;7.446;2023-04-24T07:11:12;9.98;;;4.93;;
68072;SDS011;54862;51.502;7.446;2023-04-24T07:13:38;8.95;;;4.60;;
68072;SDS011;54862;51.502;7.446;2023-04-24T07:16:09;8.23;;;4.85;;
68072;SDS011;54862;51.502;7.446;2023-04-24T07:18:35;10.23;;;4.80;;
68072;SDS011;54862;51.502;7.446;2023-04-24T07:21:02;8.98;;;4.78;;
68072;SDS011;54862;51.502;7.446;2023-04-24T07:23:28;9.23;;;4.72;;
68072;SDS011;54862;51.502;7.446;2023-04-24T07:25:57;10.93;;;5.10;;
68072;SDS011;54862;51.502;7.446;2023-04-24T07:28:23;9.32;;;5.10;;
68072;SDS011;54862;51.502;7.446;2023-04-24T07:30:51;7.57;;;4.60;;
68072;SDS011;54862;51.502;7.446;2023-04-24T07:33:18;9.45;;;4.40;;
68072;SDS011;54862;51.502;7.446;2023-04-24T07:35:47;10.48;;;3.80;;
68072;SDS011;54862;51.502;7.446;2023-04-24T07:38:13;8.80;;;3.95;;
68072;SDS011;54862;51.502;7.446;2023-04-24T07:40:39;7.95;;;4.13;;
68072;SDS011;54862;51.502;7.446;2023-04-24T07:43:05;7.78;;;3.60;;
68072;SDS011;54862;51.502;7.446;2023-04-24T07:45:31;7.03;;;3.45;;
68072;SDS011;54862;51.502;7.446;2023-04-24T07:48:03;7.65;;;3.47;;
68072;SDS011;54862;51.502;7.446;2023-04-24T07:50:29;6.80;;;3.42;;
68072;SDS011;54862;51.502;7.446;2023-04-24T07:52:55;5.93;;;3.08;;
68072;SDS011;54862;51.502;7.446;2023-04-24T07:55:26;7.03;;;3.05;;
68072;SDS011;54862;51.502;7.446;2023-04-24T07:57:52;7.43;;;3.05;;
68072;SDS011;54862;51.502;7.446;2023-04-24T08:00:20;6.00;;;2.97;;
68072;SDS011;54862;51.502;7.446;2023-04-24T08:02:48;5.88;;;2.92;;
68072;SDS011;54862;51.502;7.446;2023-04-24T08:05:15;5.43;;;2.88;;
68072;SDS011;54862;51.502;7.446;2023-04-24T08:07:43;5.75;;;2.55;;
68072;SDS011;54862;51.502;7.446;2023-04-24T08:10:11;5.65;;;2.90;;
68072;SDS011;54862;51.502;7.446;2023-04-24T08:12:37;5.35;;;2.50;;
68072;SDS011;54862;51.502;7.446;2023-04-24T08:15:06;5.53;;;2.30;;
68072;SDS011;54862;51.502;7.446;2023-04-24T08:17:34;3.80;;;1.90;;
68072;SDS011;54862;51.502;7.446;2023-04-24T08:20:01;4.75;;;2.10;;
68072;SDS011;54862;51.502;7.446;2023-04-24T08:22:27;3.78;;;2.13;;
68072;SDS011;54862;51.502;7.446;2023-04-24T08:24:53;5.53;;;2.38;;
68072;SDS011;54862;51.502;7.446;2023-04-24T08:27:21;3.80;;;2.10;;
68072;SDS011;54862;51.502;7.446;2023-04-24T08:29:49;2.67;;;1.88;;
68072;SDS011;54862;51.502;7.446;2023-04-24T08:32:15;3.00;;;1.90;;
68072;SDS011;54862;51.502;7.446;2023-04-24T08:34:41;4.63;;;2.10;;
68072;SDS011;54862;51.502;7.446;2023-04-24T08:37:08;4.90;;;2.42;;
68072;SDS011;54862;51.502;7.446;2023-04-24T08:39:35;4.35;;;2.20;;
68072;SDS011;54862;51.502;7.446;2023-04-24T08:42:02;5.32;;;2.08;;
68072;SDS011;54862;51.502;7.446;2023-04-24T08:44:35;4.95;;;2.20;;
68072;SDS011;54862;51.502;7.446;2023-04-24T08:47:02;3.38;;;1.90;;
68072;SDS011;54862;51.502;7.446;2023-04-24T08:49:28;1.77;;;1.50;;
68072;SDS011;54862;51.502;7.446;2023-04-24T08:51:57;1.98;;;1.40;;
68072;SDS011;54862;51.502;7.446;2023-04-24T08:54:24;3.40;;;1.52;;
68072;SDS011;54862;51.502;7.446;2023-04-24T08:56:53;1.90;;;1.38;;
68072;SDS011;54862;51.502;7.446;2023-04-24T08:59:19;2.65;;;1.45;;
68072;SDS011;54862;51.502;7.446;2023-04-24T09:01:51;2.70;;;1.60;;
68072;SDS011;54862;51.502;7.446;2023-04-24T09:04:18;2.38;;;1.40;;
68072;SDS011;54862;51.502;7.446;2023-04-24T09:06:47;1.55;;;1.40;;
68072;SDS011;54862;51.502;7.446;2023-04-24T09:09:16;2.33;;;1.52;;
68072;SDS011;54862;51.502;7.446;2023-04-24T09:11:42;4.18;;;1.50;;
68072;SDS011;54862;51.502;7.446;2023-04-24T09:14:09;2.97;;;1.50;;
68072;SDS011;54862;51.502;7.446;2023-04-24T09:16:35;3.35;;;1.70;;
68072;SDS011;54862;51.502;7.446;2023-04-24T09:19:02;3.25;;;1.60;;
68072;SDS011;54862;51.502;7.446;2023-04-24T09:21:35;3.05;;;1.65;;
68072;SDS011;54862;51.502;7.446;2023-04-24T09:26:29;5.70;;;1.90;;
68072;SDS011;54862;51.502;7.446;2023-04-24T09:28:56;3.20;;;1.90;;
68072;SDS011;54862;51.502;7.446;2023-04-24T09:31:22;2.97;;;2.10;;
68072;SDS011;54862;51.502;7.446;2023-04-24T09:36:30;5.45;;;2.65;;
68072;SDS011;54862;51.502;7.446;2023-04-24T09:38:58;7.60;;;2.60;;
68072;SDS011;54862;51.502;7.446;2023-04-24T09:41:27;5.57;;;2.92;;
68072;SDS011;54862;51.502;7.446;2023-04-24T09:43:54;5.38;;;2.72;;
68072;SDS011;54862;51.502;7.446;2023-04-24T09:46:29;5.25;;;3.03;;
68072;SDS011;54862;51.502;7.446;2023-04-24T09:48:56;5.63;;;3.10;;
68072;SDS011;54862;51.502;7.446;2023-04-24T09:51:35;6.65;;;3.05;;
68072;SDS011;54862;51.502;7.446;2023-04-24T09:54:02;7.63;;;3.22;;
68072;SDS011;54862;51.502;7.446;2023-04-24T09:56:34;6.70;;;3.10;;
68072;SDS011;54862;51.502;7.446;2023-04-24T09:59:08;5.88;;;2.95;;
68072;SDS011;54862;51.502;7.446;2023-04-24T10:01:34;6.43;;;3.10;;
68072;SDS011;54862;51.502;7.446;2023-04-24T10:04:00;7.18;;;3.22;;
68072;SDS011;54862;51.502;7.446;2023-04-24T10:06:34;8.02;;;3.63;;
68072;SDS011;54862;51.502;7.446;2023-04-24T10:09:03;9.27;;;3.53;;
68072;SDS011;54862;51.502;7.446;2023-04-24T10:11:29;8.73;;;3.78;;
68072;SDS011;54862;51.502;7.446;2023-04-24T10:13:56;6.63;;;2.88;;
68072;SDS011;54862;51.502;7.446;2023-04-24T10:16:22;7.00;;;2.85;;
68072;SDS011;54862;51.502;7.446;2023-04-24T10:18:48;7.43;;;2.75;;
68072;SDS011;54862;51.502;7.446;2023-04-24T10:21:15;9.10;;;2.85;;
68072;SDS011;54862;51.502;7.446;2023-04-24T10:23:42;7.82;;;3.28;;
68072;SDS011;54862;51.502;7.446;2023-04-24T10:26:14;5.68;;;2.85;;
68072;SDS011;54862;51.502;7.446;2023-04-24T10:28:45;7.50;;;3.47;;
68072;SDS011;54862;51.502;7.446;2023-04-24T10:31:14;5.78;;;2.92;;
68072;SDS011;54862;51.502;7.446;2023-04-24T10:33:41;8.20;;;3.10;;
68072;SDS011;54862;51.502;7.446;2023-04-24T10:36:10;5.90;;;2.97;;
68072;SDS011;54862;51.502;7.446;2023-04-24T10:38:37;6.65;;;3.20;;
68072;SDS011;54862;51.502;7.446;2023-04-24T10:41:11;9.30;;;3.60;;
68072;SDS011;54862;51.502;7.446;2023-04-24T10:43:44;6.72;;;3.38;;
68072;SDS011;54862;51.502;7.446;2023-04-24T10:46:10;8.68;;;4.13;;
68072;SDS011;54862;51.502;7.446;2023-04-24T10:48:42;5.75;;;2.85;;
68072;SDS011;54862;51.502;7.446;2023-04-24T10:51:12;7.90;;;3.10;;
68072;SDS011;54862;51.502;7.446;2023-04-24T10:53:39;7.32;;;3.70;;
68072;SDS011;54862;51.502;7.446;2023-04-24T10:56:06;8.57;;;3.70;;
68072;SDS011;54862;51.502;7.446;2023-04-24T10:58:37;9.55;;;4.00;;
68072;SDS011;54862;51.502;7.446;2023-04-24T11:01:03;9.23;;;3.95;;
68072;SDS011;54862;51.502;7.446;2023-04-24T11:03:30;8.93;;;4.53;;
68072;SDS011;54862;51.502;7.446;2023-04-24T11:08:38;10.25;;;4.63;;
68072;SDS011;54862;51.502;7.446;2023-04-24T11:11:15;9.57;;;4.63;;
68072;SDS011;54862;51.502;7.446;2023-04-24T11:16:29;11.15;;;5.10;;
68072;SDS011;54862;51.502;7.446;2023-04-24T11:29:20;14.85;;;5.80;;
68072;SDS011;54862;51.502;7.446;2023-04-24T11:31:49;16.05;;;6.22;;
68072;SDS011;54862;51.502;7.446;2023-04-24T11:34:16;17.27;;;6.85;;
68072;SDS011;54862;51.502;7.446;2023-04-24T11:36:45;16.33;;;7.30;;
68072;SDS011;54862;51.502;7.446;2023-04-24T11:39:12;18.00;;;7.25;;
68072;SDS011;54862;51.502;7.446;2023-04-24T11:41:41;17.92;;;7.45;;
68072;SDS011;54862;51.502;7.446;2023-04-24T11:44:09;20.33;;;7.30;;
68072;SDS011;54862;51.502;7.446;2023-04-24T11:46:36;17.42;;;7.65;;
68072;SDS011;54862;51.502;7.446;2023-04-24T11:49:04;18.58;;;7.43;;
68072;SDS011;54862;51.502;7.446;2023-04-24T11:51:31;18.50;;;7.40;;
68072;SDS011;54862;51.502;7.446;2023-04-24T11:53:58;22.65;;;8.90;;
68072;SDS011;54862;51.502;7.446;2023-04-24T11:56:24;20.40;;;8.35;;
68072;SDS011;54862;51.502;7.446;2023-04-24T11:58:53;20.15;;;8.75;;
68072;SDS011;54862;51.502;7.446;2023-04-24T12:01:21;19.48;;;8.63;;
68072;SDS011;54862;51.502;7.446;2023-04-24T12:03:48;18.85;;;8.30;;
68072;SDS011;54862;51.502;7.446;2023-04-24T12:06:16;24.83;;;9.07;;
68072;SDS011;54862;51.502;7.446;2023-04-24T12:08:47;21.00;;;9.02;;
68072;SDS011;54862;51.502;7.446;2023-04-24T12:11:14;16.02;;;8.80;;
68072;SDS011;54862;51.502;7.446;2023-04-24T12:13:40;23.10;;;10.57;;
68072;SDS011;54862;51.502;7.446;2023-04-24T12:16:06;20.25;;;9.00;;
68072;SDS011;54862;51.502;7.446;2023-04-24T12:18:35;15.95;;;7.70;;
68072;SDS011;54862;51.502;7.446;2023-04-24T12:23:42;13.52;;;5.95;;
68072;SDS011;54862;51.502;7.446;2023-04-24T12:26:11;13.60;;;5.03;;
68072;SDS011;54862;51.502;7.446;2023-04-24T12:28:38;17.85;;;5.82;;
68072;SDS011;54862;51.502;7.446;2023-04-24T12:31:07;11.35;;;5.18;;
68072;SDS011;54862;51.502;7.446;2023-04-24T12:33:33;17.05;;;6.45;;
68072;SDS011;54862;51.502;7.446;2023-04-24T12:35:59;12.75;;;5.75;;
68072;SDS011;54862;51.502;7.446;2023-04-24T12:38:28;17.77;;;6.30;;
68072;SDS011;54862;51.502;7.446;2023-04-24T12:41:02;12.77;;;6.07;;
68072;SDS011;54862;51.502;7.446;2023-04-24T12:43:29;12.70;;;5.45;;
68072;SDS011;54862;51.502;7.446;2023-04-24T12:45:55;13.18;;;5.30;;
68072;SDS011;54862;51.502;7.446;2023-04-24T12:48:21;13.05;;;5.50;;
68072;SDS011;54862;51.502;7.446;2023-04-24T12:50:47;9.60;;;4.22;;
68072;SDS011;54862;51.502;7.446;2023-04-24T12:53:16;10.32;;;4.93;;
68072;SDS011;54862;51.502;7.446;2023-04-24T12:55:42;11.48;;;4.60;;
68072;SDS011;54862;51.502;7.446;2023-04-24T12:58:09;10.65;;;4.50;;
68072;SDS011;54862;51.502;7.446;2023-04-24T13:00:38;10.35;;;4.28;;
68072;SDS011;54862;51.502;7.446;2023-04-24T13:03:04;9.48;;;4.70;;
68072;SDS011;54862;51.502;7.446;2023-04-24T13:05:30;8.73;;;4.63;;
68072;SDS011;54862;51.502;7.446;2023-04-24T13:07:56;13.07;;;5.28;;
68072;SDS011;54862;51.502;7.446;2023-04-24T13:10:23;14.52;;;5.35;;
68072;SDS011;54862;51.502;7.446;2023-04-24T13:12:49;10.77;;;5.00;;
68072;SDS011;54862;51.502;7.446;2023-04-24T13:15:15;10.82;;;5.15;;
68072;SDS011;54862;51.502;7.446;2023-04-24T13:17:41;15.02;;;4.80;;
68072;SDS011;54862;51.502;7.446;2023-04-24T13:20:07;11.02;;;4.53;;
68072;SDS011;54862;51.502;7.446;2023-04-24T13:22:35;12.60;;;4.82;;
68072;SDS011;54862;51.502;7.446;2023-04-24T13:25:02;11.68;;;4.55;;
68072;SDS011;54862;51.502;7.446;2023-04-24T13:27:28;12.30;;;4.55;;
68072;SDS011;54862;51.502;7.446;2023-04-24T13:29:54;16.40;;;4.00;;
68072;SDS011;54862;51.502;7.446;2023-04-24T13:32:20;15.45;;;4.93;;
68072;SDS011;54862;51.502;7.446;2023-04-24T13:34:46;11.55;;;4.13;;
68072;SDS011;54862;51.502;7.446;2023-04-24T13:37:12;7.82;;;3.78;;
68072;SDS011;54862;51.502;7.446;2023-04-24T13:39:38;9.98;;;4.28;;
68072;SDS011;54862;51.502;7.446;2023-04-24T13:42:06;7.40;;;3.35;;
68072;SDS011;54862;51.502;7.446;2023-04-24T13:44:32;7.75;;;3.83;;
68072;SDS011;54862;51.502;7.446;2023-04-24T13:46:58;9.40;;;4.30;;
68072;SDS011;54862;51.502;7.446;2023-04-24T13:49:24;9.55;;;4.10;;
68072;SDS011;54862;51.502;7.446;2023-04-24T13:51:51;10.18;;;3.40;;
68072;SDS011;54862;51.502;7.446;2023-04-24T13:54:17;9.70;;;3.35;;
68072;SDS011;54862;51.502;7.446;2023-04-24T13:56:43;7.60;;;3.17;;
68072;SDS011;54862;51.502;7.446;2023-04-24T13:59:14;9.93;;;3.55;;
68072;SDS011;54862;51.502;7.446;2023-04-24T14:01:40;8.23;;;3.33;;
68072;SDS011;54862;51.502;7.446;2023-04-24T14:04:08;7.80;;;3.03;;
68072;SDS011;54862;51.502;7.446;2023-04-24T14:06:37;7.68;;;2.90;;
68072;SDS011;54862;51.502;7.446;2023-04-24T14:09:03;7.07;;;2.90;;
68072;SDS011;54862;51.502;7.446;2023-04-24T14:11:29;5.00;;;2.38;;
68072;SDS011;54862;51.502;7.446;2023-04-24T14:13:55;7.97;;;2.50;;
68072;SDS011;54862;51.502;7.446;2023-04-24T14:16:21;8.48;;;3.35;;
68072;SDS011;54862;51.502;7.446;2023-04-24T14:18:47;6.10;;;2.60;;
68072;SDS011;54862;51.502;7.446;2023-04-24T14:21:13;5.25;;;2.38;;
68072;SDS011;54862;51.502;7.446;2023-04-24T14:23:39;5.57;;;2.50;;
68072;SDS011;54862;51.502;7.446;2023-04-24T14:26:05;7.35;;;2.50;;
68072;SDS011;54862;51.502;7.446;2023-04-24T14:28:32;7.35;;;2.53;;
68072;SDS011;54862;51.502;7.446;2023-04-24T14:31:00;6.38;;;2.97;;
68072;SDS011;54862;51.502;7.446;2023-04-24T14:33:26;6.85;;;2.70;;
68072;SDS011;54862;51.502;7.446;2023-04-24T14:35:52;4.82;;;2.65;;
68072;SDS011;54862;51.502;7.446;2023-04-24T14:38:18;9.32;;;4.30;;
68072;SDS011;54862;51.502;7.446;2023-04-24T14:40:45;6.13;;;2.50;;
68072;SDS011;54862;51.502;7.446;2023-04-24T14:43:13;4.30;;;2.20;;
68072;SDS011;54862;51.502;7.446;2023-04-24T14:45:39;4.43;;;2.03;;
68072;SDS011;54862;51.502;7.446;2023-04-24T14:48:06;5.07;;;2.10;;
68072;SDS011;54862;51.502;7.446;2023-04-24T14:50:33;6.47;;;2.63;;
68072;SDS011;54862;51.502;7.446;2023-04-24T14:53:01;5.43;;;2.40;;
68072;SDS011;54862;51.502;7.446;2023-04-24T14:55:27;6.45;;;2.58;;
68072;SDS011;54862;51.502;7.446;2023-04-24T14:57:53;5.45;;;2.80;;
68072;SDS011;54862;51.502;7.446;2023-04-24T15:00:20;6.22;;;2.65;;
68072;SDS011;54862;51.502;7.446;2023-04-24T15:02:48;4.80;;;2.53;;
68072;SDS011;54862;51.502;7.446;2023-04-24T15:05:14;6.60;;;2.80;;